sensor_id;sensor_type;location;lat;lon;timestamp;pressure;altitude;pressure_sealevel;temperature;humidity
63700;BME280;49845;47.130;142.766;2023-11-21T00:01:05;99714.16;;;3.52;79.88
63700;BME280;49845;47.130;142.766;2023-11-21T00:03:37;99714.16;;;3.51;80.94
63700;BME280;49845;47.130;142.766;2023-11-21T00:06:09;99702.94;;;3.42;80.78
63700;BME280;49845;47.130;142.766;2023-11-21T00:08:39;99717.63;;;3.56;79.93
63700;BME280;49845;47.130;142.766;2023-11-21T00:11:09;99699.50;;;3.54;80.04
63700;BME280;49845;47.130;142.766;2023-11-21T00:13:40;99703.91;;;3.72;79.35
63700;BME280;49845;47.130;142.766;2023-11-21T00:16:12;99703.91;;;3.91;79.29
63700;BME280;49845;47.130;142.766;2023-11-21T00:18:42;99697.91;;;4.10;78.89
63700;BME280;49845;47.130;142.766;2023-11-21T00:21:15;99697.06;;;4.32;77.84
63700;BME280;49845;47.130;142.766;2023-11-21T00:23:45;99695.28;;;4.59;77.88
63700;BME280;49845;47.130;142.766;2023-11-21T00:26:15;99689.25;;;4.77;75.38
63700;BME280;49845;47.130;142.766;2023-11-21T00:28:46;99681.44;;;4.97;75.47
63700;BME280;49845;47.130;142.766;2023-11-21T00:31:18;99670.97;;;5.22;74.88
63700;BME280;49845;47.130;142.766;2023-11-21T00:33:48;99639.88;;;5.28;74.31
63700;BME280;49845;47.130;142.766;2023-11-21T00:36:19;99644.03;;;5.58;73.67
63700;BME280;49845;47.130;142.766;2023-11-21T00:38:49;99660.34;;;5.74;71.57
63700;BME280;49845;47.130;142.766;2023-11-21T00:41:20;99671.53;;;5.82;71.74
63700;BME280;49845;47.130;142.766;2023-11-21T00:43:50;99667.19;;;5.81;70.84
63700;BME280;49845;47.130;142.766;2023-11-21T00:46:22;99665.50;;;5.80;71.50
63700;BME280;49845;47.130;142.766;2023-11-21T00:48:55;99656.81;;;5.84;72.21
63700;BME280;49845;47.130;142.766;2023-11-21T00:51:25;99661.94;;;5.93;72.49
63700;BME280;49845;47.130;142.766;2023-11-21T00:53:56;99658.50;;;5.97;72.05
63700;BME280;49845;47.130;142.766;2023-11-21T00:56:26;99655.03;;;5.95;72.23
63700;BME280;49845;47.130;142.766;2023-11-21T00:58:57;99650.72;;;5.93;72.07
63700;BME280;49845;47.130;142.766;2023-11-21T01:01:29;99642.94;;;5.91;71.47
63700;BME280;49845;47.130;142.766;2023-11-21T01:03:59;99652.44;;;5.92;71.21
63700;BME280;49845;47.130;142.766;2023-11-21T01:06:31;99653.31;;;5.97;71.39
63700;BME280;49845;47.130;142.766;2023-11-21T01:09:01;99632.50;;;6.07;71.29
63700;BME280;49845;47.130;142.766;2023-11-21T01:11:36;99610.03;;;6.02;70.80
63700;BME280;49845;47.130;142.766;2023-11-21T01:14:07;99645.22;;;6.31;69.25
63700;BME280;49845;47.130;142.766;2023-11-21T01:16:40;99658.25;;;6.28;69.49
63700;BME280;49845;47.130;142.766;2023-11-21T01:19:10;99642.72;;;6.25;70.02
63700;BME280;49845;47.130;142.766;2023-11-21T01:21:41;99651.34;;;6.24;70.20
63700;BME280;49845;47.130;142.766;2023-11-21T01:24:12;99639.31;;;6.17;70.29
63700;BME280;49845;47.130;142.766;2023-11-21T01:26:42;99641.00;;;6.21;69.87
63700;BME280;49845;47.130;142.766;2023-11-21T01:29:15;99633.19;;;6.24;69.30
63700;BME280;49845;47.130;142.766;2023-11-21T01:31:47;99640.84;;;6.36;69.80
63700;BME280;49845;47.130;142.766;2023-11-21T01:34:17;99639.06;;;6.44;69.64
63700;BME280;49845;47.130;142.766;2023-11-21T01:36:48;99629.38;;;6.60;70.28
63700;BME280;49845;47.130;142.766;2023-11-21T01:39:18;99612.81;;;6.72;69.65
63700;BME280;49845;47.130;142.766;2023-11-21T01:41:52;99613.53;;;6.86;70.21
63700;BME280;49845;47.130;142.766;2023-11-21T01:44:22;99617.66;;;7.03;70.43
63700;BME280;49845;47.130;142.766;2023-11-21T01:46:54;99613.25;;;7.09;67.70
63700;BME280;49845;47.130;142.766;2023-11-21T01:49:26;99622.75;;;7.12;69.62
63700;BME280;49845;47.130;142.766;2023-11-21T01:51:56;99603.59;;;7.19;69.33
63700;BME280;49845;47.130;142.766;2023-11-21T01:54:27;99624.28;;;7.25;69.11
63700;BME280;49845;47.130;142.766;2023-11-21T01:56:59;99615.75;;;7.17;67.10
63700;BME280;49845;47.130;142.766;2023-11-21T01:59:34;99613.34;;;7.00;65.91
63700;BME280;49845;47.130;142.766;2023-11-21T02:02:07;99615.16;;;6.97;67.68
63700;BME280;49845;47.130;142.766;2023-11-21T02:04:38;99607.38;;;6.94;68.83
63700;BME280;49845;47.130;142.766;2023-11-21T02:07:09;99619.53;;;6.91;69.00
63700;BME280;49845;47.130;142.766;2023-11-21T02:09:39;99606.56;;;6.90;69.40
63700;BME280;49845;47.130;142.766;2023-11-21T02:12:10;99604.00;;;6.87;69.71
63700;BME280;49845;47.130;142.766;2023-11-21T02:14:41;99615.25;;;6.86;69.94
63700;BME280;49845;47.130;142.766;2023-11-21T02:17:14;99614.34;;;6.88;70.09
63700;BME280;49845;47.130;142.766;2023-11-21T02:19:46;99608.31;;;6.89;69.20
63700;BME280;49845;47.130;142.766;2023-11-21T02:22:19;99611.66;;;6.96;69.14
63700;BME280;49845;47.130;142.766;2023-11-21T02:24:52;99596.81;;;7.06;68.81
63700;BME280;49845;47.130;142.766;2023-11-21T02:27:24;99594.88;;;7.23;67.96
63700;BME280;49845;47.130;142.766;2023-11-21T02:29:56;99593.00;;;7.34;68.45
63700;BME280;49845;47.130;142.766;2023-11-21T02:32:27;99586.91;;;7.37;68.87
63700;BME280;49845;47.130;142.766;2023-11-21T02:34:59;99591.03;;;7.50;69.01
63700;BME280;49845;47.130;142.766;2023-11-21T02:37:30;99582.44;;;7.44;66.29
63700;BME280;49845;47.130;142.766;2023-11-21T02:40:03;99586.03;;;7.37;66.64
63700;BME280;49845;47.130;142.766;2023-11-21T02:42:34;99572.28;;;7.28;66.89
63700;BME280;49845;47.130;142.766;2023-11-21T02:45:06;99575.88;;;7.18;66.59
63700;BME280;49845;47.130;142.766;2023-11-21T02:47:36;99574.22;;;7.14;67.62
63700;BME280;49845;47.130;142.766;2023-11-21T02:50:08;99564.63;;;7.19;67.99
63700;BME280;49845;47.130;142.766;2023-11-21T02:52:38;99565.44;;;7.24;68.52
63700;BME280;49845;47.130;142.766;2023-11-21T02:55:11;99569.66;;;7.30;67.89
63700;BME280;49845;47.130;142.766;2023-11-21T02:57:42;99572.06;;;7.44;68.28
63700;BME280;49845;47.130;142.766;2023-11-21T03:00:12;99559.78;;;7.55;67.05
63700;BME280;49845;47.130;142.766;2023-11-21T03:02:43;99553.66;;;7.56;67.22
63700;BME280;49845;47.130;142.766;2023-11-21T03:05:16;99551.97;;;7.56;68.02
63700;BME280;49845;47.130;142.766;2023-11-21T03:07:47;99547.69;;;7.51;68.60
63700;BME280;49845;47.130;142.766;2023-11-21T03:10:19;99540.78;;;7.50;67.42
63700;BME280;49845;47.130;142.766;2023-11-21T03:12:50;99521.69;;;7.51;67.65
63700;BME280;49845;47.130;142.766;2023-11-21T03:15:21;99512.97;;;7.56;68.07
63700;BME280;49845;47.130;142.766;2023-11-21T03:17:51;99512.91;;;7.58;67.53
63700;BME280;49845;47.130;142.766;2023-11-21T03:20:21;99506.94;;;7.53;67.49
63700;BME280;49845;47.130;142.766;2023-11-21T03:22:52;99499.19;;;7.50;67.32
63700;BME280;49845;47.130;142.766;2023-11-21T03:25:24;99492.97;;;7.60;68.98
63700;BME280;49845;47.130;142.766;2023-11-21T03:27:54;99494.66;;;7.61;69.09
63700;BME280;49845;47.130;142.766;2023-11-21T03:30:25;99497.38;;;7.55;68.46
63700;BME280;49845;47.130;142.766;2023-11-21T03:32:55;99489.63;;;7.52;69.65
63700;BME280;49845;47.130;142.766;2023-11-21T03:35:25;99500.09;;;7.47;69.58
63700;BME280;49845;47.130;142.766;2023-11-21T03:37:56;99487.22;;;7.40;68.04
63700;BME280;49845;47.130;142.766;2023-11-21T03:40:28;99482.09;;;7.37;68.80
63700;BME280;49845;47.130;142.766;2023-11-21T03:42:59;99481.06;;;7.47;69.53
63700;BME280;49845;47.130;142.766;2023-11-21T03:45:30;99475.59;;;7.61;70.37
63700;BME280;49845;47.130;142.766;2023-11-21T03:48:00;99485.06;;;7.66;70.55
63700;BME280;49845;47.130;142.766;2023-11-21T03:50:31;99486.84;;;7.61;69.62
63700;BME280;49845;47.130;142.766;2023-11-21T03:53:01;99477.41;;;7.57;69.79
63700;BME280;49845;47.130;142.766;2023-11-21T03:55:33;99459.28;;;7.54;69.84
63700;BME280;49845;47.130;142.766;2023-11-21T03:58:04;99467.09;;;7.52;69.97
63700;BME280;49845;47.130;142.766;2023-11-21T04:00:34;99464.50;;;7.51;68.89
63700;BME280;49845;47.130;142.766;2023-11-21T04:03:04;99461.13;;;7.46;69.14
63700;BME280;49845;47.130;142.766;2023-11-21T04:05:35;99447.28;;;7.45;70.02
63700;BME280;49845;47.130;142.766;2023-11-21T04:08:05;99450.63;;;7.52;69.75
63700;BME280;49845;47.130;142.766;2023-11-21T04:10:37;99450.69;;;7.49;69.88
63700;BME280;49845;47.130;142.766;2023-11-21T04:13:08;99449.94;;;7.42;70.02
63700;BME280;49845;47.130;142.766;2023-11-21T04:15:39;99456.09;;;7.37;70.20
63700;BME280;49845;47.130;142.766;2023-11-21T04:18:09;99448.31;;;7.33;70.42
63700;BME280;49845;47.130;142.766;2023-11-21T04:20:40;99444.72;;;7.42;70.68
63700;BME280;49845;47.130;142.766;2023-11-21T04:23:10;99442.72;;;7.60;71.29
63700;BME280;49845;47.130;142.766;2023-11-21T04:25:43;99440.88;;;7.65;70.04
63700;BME280;49845;47.130;142.766;2023-11-21T04:28:14;99460.84;;;7.64;69.53
63700;BME280;49845;47.130;142.766;2023-11-21T04:30:44;99441.66;;;7.68;68.99
63700;BME280;49845;47.130;142.766;2023-11-21T04:33:14;99443.34;;;7.72;68.36
63700;BME280;49845;47.130;142.766;2023-11-21T04:35:45;99438.16;;;7.72;67.31
63700;BME280;49845;47.130;142.766;2023-11-21T04:38:16;99443.41;;;7.69;67.36
63700;BME280;49845;47.130;142.766;2023-11-21T04:40:49;99446.72;;;7.77;69.05
63700;BME280;49845;47.130;142.766;2023-11-21T04:43:19;99452.56;;;7.90;69.40
63700;BME280;49845;47.130;142.766;2023-11-21T04:45:49;99447.97;;;8.03;69.90
63700;BME280;49845;47.130;142.766;2023-11-21T04:48:20;99447.81;;;8.12;69.87
63700;BME280;49845;47.130;142.766;2023-11-21T04:50:51;99441.69;;;8.15;69.36
63700;BME280;49845;47.130;142.766;2023-11-21T04:53:21;99448.09;;;7.97;66.83
63700;BME280;49845;47.130;142.766;2023-11-21T04:55:53;99450.22;;;7.76;67.83
63700;BME280;49845;47.130;142.766;2023-11-21T04:58:25;99451.22;;;7.68;69.33
63700;BME280;49845;47.130;142.766;2023-11-21T05:00:56;99463.28;;;7.72;70.08
63700;BME280;49845;47.130;142.766;2023-11-21T05:03:27;99463.22;;;7.75;70.15
63700;BME280;49845;47.130;142.766;2023-11-21T05:05:59;99462.31;;;7.77;69.27
63700;BME280;49845;47.130;142.766;2023-11-21T05:08:30;99469.41;;;7.69;67.58
63700;BME280;49845;47.130;142.766;2023-11-21T05:11:01;99466.13;;;7.58;69.04
63700;BME280;49845;47.130;142.766;2023-11-21T05:13:33;99472.34;;;7.48;68.60
63700;BME280;49845;47.130;142.766;2023-11-21T05:16:04;99476.91;;;7.33;68.93
63700;BME280;49845;47.130;142.766;2023-11-21T05:18:35;99478.84;;;7.22;69.87
63700;BME280;49845;47.130;142.766;2023-11-21T05:21:06;99478.97;;;7.13;70.34
63700;BME280;49845;47.130;142.766;2023-11-21T05:23:36;99473.91;;;7.04;69.94
63700;BME280;49845;47.130;142.766;2023-11-21T05:26:08;99481.84;;;6.93;69.21
63700;BME280;49845;47.130;142.766;2023-11-21T05:28:39;99481.13;;;6.83;69.30
63700;BME280;49845;47.130;142.766;2023-11-21T05:31:09;99483.78;;;6.79;69.63
63700;BME280;49845;47.130;142.766;2023-11-21T05:33:43;99472.59;;;6.75;69.53
63700;BME280;49845;47.130;142.766;2023-11-21T05:36:14;99467.38;;;6.75;69.33
63700;BME280;49845;47.130;142.766;2023-11-21T05:38:44;99472.59;;;6.75;70.28
63700;BME280;49845;47.130;142.766;2023-11-21T05:41:17;99480.47;;;6.67;70.28
63700;BME280;49845;47.130;142.766;2023-11-21T05:43:47;99481.38;;;6.65;70.60
63700;BME280;49845;47.130;142.766;2023-11-21T05:46:18;99486.63;;;6.62;71.32
63700;BME280;49845;47.130;142.766;2023-11-21T05:48:48;99491.81;;;6.60;71.85
63700;BME280;49845;47.130;142.766;2023-11-21T05:51:19;99484.88;;;6.61;71.79
63700;BME280;49845;47.130;142.766;2023-11-21T05:53:49;99482.28;;;6.61;71.96
63700;BME280;49845;47.130;142.766;2023-11-21T05:56:21;99410.16;;;6.16;72.68
63700;BME280;49845;47.130;142.766;2023-11-21T05:58:51;99496.94;;;6.65;73.17
63700;BME280;49845;47.130;142.766;2023-11-21T06:01:22;99490.91;;;6.61;73.04
63700;BME280;49845;47.130;142.766;2023-11-21T06:03:52;99484.97;;;6.55;72.48
63700;BME280;49845;47.130;142.766;2023-11-21T06:06:23;99498.00;;;6.52;72.90
63700;BME280;49845;47.130;142.766;2023-11-21T06:08:54;99486.91;;;6.37;72.97
63700;BME280;49845;47.130;142.766;2023-11-21T06:11:26;99500.75;;;6.36;72.81
63700;BME280;49845;47.130;142.766;2023-11-21T06:13:57;99505.97;;;6.33;73.08
63700;BME280;49845;47.130;142.766;2023-11-21T06:16:28;99515.50;;;6.31;73.63
63700;BME280;49845;47.130;142.766;2023-11-21T06:18:58;99509.50;;;6.29;73.57
63700;BME280;49845;47.130;142.766;2023-11-21T06:21:29;99512.94;;;6.28;73.74
63700;BME280;49845;47.130;142.766;2023-11-21T06:23:59;99514.69;;;6.29;73.75
63700;BME280;49845;47.130;142.766;2023-11-21T06:26:32;99522.44;;;6.31;73.83
63700;BME280;49845;47.130;142.766;2023-11-21T06:29:02;99523.38;;;6.25;73.79
63700;BME280;49845;47.130;142.766;2023-11-21T06:31:33;99523.31;;;6.28;74.19
63700;BME280;49845;47.130;142.766;2023-11-21T06:34:03;99529.41;;;6.24;74.29
63700;BME280;49845;47.130;142.766;2023-11-21T06:36:34;99528.56;;;6.25;74.84
63700;BME280;49845;47.130;142.766;2023-11-21T06:39:04;99525.09;;;6.23;74.80
63700;BME280;49845;47.130;142.766;2023-11-21T06:41:38;99525.16;;;6.20;74.89
63700;BME280;49845;47.130;142.766;2023-11-21T06:44:09;99526.03;;;6.17;74.63
63700;BME280;49845;47.130;142.766;2023-11-21T06:46:39;99526.91;;;6.16;74.69
63700;BME280;49845;47.130;142.766;2023-11-21T06:49:11;99528.69;;;6.13;74.56
63700;BME280;49845;47.130;142.766;2023-11-21T06:51:41;99530.38;;;6.14;75.12
63700;BME280;49845;47.130;142.766;2023-11-21T06:54:11;99531.31;;;6.10;75.09
63700;BME280;49845;47.130;142.766;2023-11-21T06:56:44;99527.88;;;6.09;75.50
63700;BME280;49845;47.130;142.766;2023-11-21T06:59:14;99524.38;;;6.09;75.50
63700;BME280;49845;47.130;142.766;2023-11-21T07:01:45;99532.16;;;6.09;75.74
63700;BME280;49845;47.130;142.766;2023-11-21T07:04:15;99475.34;;;5.81;75.67
63700;BME280;49845;47.130;142.766;2023-11-21T07:06:46;99526.97;;;6.09;75.26
63700;BME280;49845;47.130;142.766;2023-11-21T07:09:17;99533.94;;;6.03;75.22
63700;BME280;49845;47.130;142.766;2023-11-21T07:11:52;99527.09;;;5.96;75.43
63700;BME280;49845;47.130;142.766;2023-11-21T07:14:22;99540.88;;;6.01;75.59
63700;BME280;49845;47.130;142.766;2023-11-21T07:16:53;99536.56;;;6.02;76.04
63700;BME280;49845;47.130;142.766;2023-11-21T07:19:23;99544.34;;;6.00;76.68
63700;BME280;49845;47.130;142.766;2023-11-21T07:21:54;99549.53;;;6.00;76.86
63700;BME280;49845;47.130;142.766;2023-11-21T07:24:24;99547.81;;;6.02;76.62
63700;BME280;49845;47.130;142.766;2023-11-21T07:26:56;99551.25;;;6.01;76.63
63700;BME280;49845;47.130;142.766;2023-11-21T07:29:27;99559.91;;;5.99;76.38
63700;BME280;49845;47.130;142.766;2023-11-21T07:31:58;99559.91;;;6.00;77.03
63700;BME280;49845;47.130;142.766;2023-11-21T07:34:29;99562.50;;;5.99;76.58
63700;BME280;49845;47.130;142.766;2023-11-21T07:36:59;99555.63;;;5.99;76.56
63700;BME280;49845;47.130;142.766;2023-11-21T07:39:30;99559.94;;;5.97;76.31
63700;BME280;49845;47.130;142.766;2023-11-21T07:42:02;99564.28;;;5.97;75.82
63700;BME280;49845;47.130;142.766;2023-11-21T07:44:32;99556.47;;;5.98;76.43
63700;BME280;49845;47.130;142.766;2023-11-21T07:47:03;99554.75;;;5.96;76.04
63700;BME280;49845;47.130;142.766;2023-11-21T07:49:34;99560.84;;;5.95;76.33
63700;BME280;49845;47.130;142.766;2023-11-21T07:52:04;99457.66;;;5.29;76.47
63700;BME280;49845;47.130;142.766;2023-11-21T07:54:35;99563.41;;;5.93;76.61
63700;BME280;49845;47.130;142.766;2023-11-21T07:57:07;99560.81;;;5.93;76.44
63700;BME280;49845;47.130;142.766;2023-11-21T07:59:40;99575.53;;;5.94;76.62
63700;BME280;49845;47.130;142.766;2023-11-21T08:02:10;99572.06;;;5.92;76.32
63700;BME280;49845;47.130;142.766;2023-11-21T08:04:41;99565.13;;;5.91;76.69
63700;BME280;49845;47.130;142.766;2023-11-21T08:07:11;99563.44;;;5.92;76.93
63700;BME280;49845;47.130;142.766;2023-11-21T08:09:41;99567.78;;;5.88;76.63
63700;BME280;49845;47.130;142.766;2023-11-21T08:12:14;99573.84;;;5.87;75.99
63700;BME280;49845;47.130;142.766;2023-11-21T08:14:45;99577.28;;;5.89;76.56
63700;BME280;49845;47.130;142.766;2023-11-21T08:17:16;99584.22;;;5.87;76.91
63700;BME280;49845;47.130;142.766;2023-11-21T08:19:48;99580.75;;;5.85;76.93
63700;BME280;49845;47.130;142.766;2023-11-21T08:22:19;99579.06;;;5.81;76.47
63700;BME280;49845;47.130;142.766;2023-11-21T08:24:50;99584.22;;;5.84;75.99
63700;BME280;49845;47.130;142.766;2023-11-21T08:27:22;99587.69;;;5.83;76.61
63700;BME280;49845;47.130;142.766;2023-11-21T08:29:53;99580.78;;;5.82;76.16
63700;BME280;49845;47.130;142.766;2023-11-21T08:32:24;99579.06;;;5.81;76.15
63700;BME280;49845;47.130;142.766;2023-11-21T08:34:54;99584.25;;;5.81;76.26
63700;BME280;49845;47.130;142.766;2023-11-21T08:37:25;99585.97;;;5.79;76.50
63700;BME280;49845;47.130;142.766;2023-11-21T08:39:59;99580.81;;;5.76;76.33
63700;BME280;49845;47.130;142.766;2023-11-21T08:42:32;99577.38;;;5.74;76.62
63700;BME280;49845;47.130;142.766;2023-11-21T08:45:02;99586.06;;;5.70;76.91
63700;BME280;49845;47.130;142.766;2023-11-21T08:47:33;99531.03;;;5.37;76.89
63700;BME280;49845;47.130;142.766;2023-11-21T08:50:05;99580.91;;;5.63;76.38
63700;BME280;49845;47.130;142.766;2023-11-21T08:52:36;99578.34;;;5.62;76.47
63700;BME280;49845;47.130;142.766;2023-11-21T08:55:07;99580.91;;;5.65;76.46
63700;BME280;49845;47.130;142.766;2023-11-21T08:57:44;99588.69;;;5.63;76.68
63700;BME280;49845;47.130;142.766;2023-11-21T09:00:15;99605.97;;;5.65;76.61
63700;BME280;49845;47.130;142.766;2023-11-21T09:02:46;99605.13;;;5.62;76.45
63700;BME280;49845;47.130;142.766;2023-11-21T09:05:17;99609.44;;;5.63;74.89
63700;BME280;49845;47.130;142.766;2023-11-21T09:07:49;99613.78;;;5.58;75.40
63700;BME280;49845;47.130;142.766;2023-11-21T09:10:20;99613.84;;;5.49;76.34
63700;BME280;49845;47.130;142.766;2023-11-21T09:12:53;99631.16;;;5.41;76.31
63700;BME280;49845;47.130;142.766;2023-11-21T09:15:24;99620.81;;;5.38;76.74
63700;BME280;49845;47.130;142.766;2023-11-21T09:17:54;99613.09;;;5.32;77.13
63700;BME280;49845;47.130;142.766;2023-11-21T09:20:25;99601.91;;;5.27;76.84
63700;BME280;49845;47.130;142.766;2023-11-21T09:22:55;99598.41;;;5.31;76.42
63700;BME280;49845;47.130;142.766;2023-11-21T09:25:26;99594.97;;;5.29;76.60
63700;BME280;49845;47.130;142.766;2023-11-21T09:27:58;99589.81;;;5.23;76.90
63700;BME280;49845;47.130;142.766;2023-11-21T09:30:29;99588.16;;;5.12;77.30
63700;BME280;49845;47.130;142.766;2023-11-21T09:32:59;99588.19;;;5.05;77.48
63700;BME280;49845;47.130;142.766;2023-11-21T09:35:30;99595.97;;;5.00;77.52
63700;BME280;49845;47.130;142.766;2023-11-21T09:38:00;99596.81;;;4.99;78.24
63700;BME280;49845;47.130;142.766;2023-11-21T09:40:34;99602.91;;;4.93;77.56
63700;BME280;49845;47.130;142.766;2023-11-21T09:43:12;99602.03;;;4.96;77.20
63700;BME280;49845;47.130;142.766;2023-11-21T09:45:46;99595.16;;;4.92;77.35
63700;BME280;49845;47.130;142.766;2023-11-21T09:48:20;99596.06;;;4.85;77.29
63700;BME280;49845;47.130;142.766;2023-11-21T09:50:51;99612.44;;;4.81;77.40
63700;BME280;49845;47.130;142.766;2023-11-21T09:53:24;99605.56;;;4.73;77.67
63700;BME280;49845;47.130;142.766;2023-11-21T09:55:58;99616.81;;;4.68;78.07
63700;BME280;49845;47.130;142.766;2023-11-21T09:58:32;99616.81;;;4.60;78.40
63700;BME280;49845;47.130;142.766;2023-11-21T10:01:04;99635.81;;;4.54;78.60
63700;BME280;49845;47.130;142.766;2023-11-21T10:03:36;99642.72;;;4.46;79.17
63700;BME280;49845;47.130;142.766;2023-11-21T10:06:08;99649.63;;;4.40;79.71
63700;BME280;49845;47.130;142.766;2023-11-21T10:08:39;99650.50;;;4.39;79.83
63700;BME280;49845;47.130;142.766;2023-11-21T10:11:24;99648.78;;;4.38;79.70
63700;BME280;49845;47.130;142.766;2023-11-21T10:13:59;99647.03;;;4.43;80.88
63700;BME280;49845;47.130;142.766;2023-11-21T10:16:31;99649.63;;;4.33;80.68
63700;BME280;49845;47.130;142.766;2023-11-21T10:19:01;99646.22;;;4.22;80.27
63700;BME280;49845;47.130;142.766;2023-11-21T10:21:39;99633.25;;;4.19;81.26
63700;BME280;49845;47.130;142.766;2023-11-21T10:24:09;99645.34;;;4.17;81.45
63700;BME280;49845;47.130;142.766;2023-11-21T10:26:40;99641.91;;;4.15;81.57
63700;BME280;49845;47.130;142.766;2023-11-21T10:29:22;99640.16;;;4.14;81.72
63700;BME280;49845;47.130;142.766;2023-11-21T10:31:52;99635.84;;;4.13;81.64
63700;BME280;49845;47.130;142.766;2023-11-21T10:34:26;99633.25;;;4.19;81.85
63700;BME280;49845;47.130;142.766;2023-11-21T10:36:57;99638.44;;;4.28;82.12
63700;BME280;49845;47.130;142.766;2023-11-21T10:39:26;99641.88;;;4.33;82.24
63700;BME280;49845;47.130;142.766;2023-11-21T10:41:59;99654.81;;;4.40;81.49
63700;BME280;49845;47.130;142.766;2023-11-21T10:44:32;99648.75;;;4.44;81.74
63700;BME280;49845;47.130;142.766;2023-11-21T10:47:03;99648.75;;;4.44;81.55
63700;BME280;49845;47.130;142.766;2023-11-21T10:49:33;99655.66;;;4.48;81.85
63700;BME280;49845;47.130;142.766;2023-11-21T10:52:04;99657.38;;;4.52;81.43
63700;BME280;49845;47.130;142.766;2023-11-21T10:54:35;99664.25;;;4.56;82.00
63700;BME280;49845;47.130;142.766;2023-11-21T10:57:06;99659.94;;;4.57;82.07
63700;BME280;49845;47.130;142.766;2023-11-21T10:59:38;99662.53;;;4.49;82.43
63700;BME280;49845;47.130;142.766;2023-11-21T11:02:15;99652.22;;;4.52;83.64
63700;BME280;49845;47.130;142.766;2023-11-21T11:04:50;99659.09;;;4.56;84.25
63700;BME280;49845;47.130;142.766;2023-11-21T11:07:25;99660.81;;;4.60;84.03
63700;BME280;49845;47.130;142.766;2023-11-21T11:09:56;99658.19;;;4.66;84.23
63700;BME280;49845;47.130;142.766;2023-11-21T11:12:28;99667.69;;;4.70;84.31
63700;BME280;49845;47.130;142.766;2023-11-21T11:15:01;99643.56;;;4.53;84.29
63700;BME280;49845;47.130;142.766;2023-11-21T11:17:33;99655.63;;;4.66;84.23
63700;BME280;49845;47.130;142.766;2023-11-21T11:20:05;99657.38;;;4.64;83.50
63700;BME280;49845;47.130;142.766;2023-11-21T11:22:44;99631.53;;;4.47;83.31
63700;BME280;49845;47.130;142.766;2023-11-21T11:25:30;99622.03;;;4.40;83.29
63700;BME280;49845;47.130;142.766;2023-11-21T11:28:06;99653.91;;;4.59;83.48
63700;BME280;49845;47.130;142.766;2023-11-21T11:30:45;99664.25;;;4.59;83.50
63700;BME280;49845;47.130;142.766;2023-11-21T11:33:25;99657.34;;;4.61;83.29
63700;BME280;49845;47.130;142.766;2023-11-21T11:36:06;99662.53;;;4.61;82.95
63700;BME280;49845;47.130;142.766;2023-11-21T11:38:44;99664.25;;;4.64;82.98
63700;BME280;49845;47.130;142.766;2023-11-21T11:41:24;99668.56;;;4.62;83.21
63700;BME280;49845;47.130;142.766;2023-11-21T11:43:58;99663.41;;;4.60;83.59
63700;BME280;49845;47.130;142.766;2023-11-21T11:46:43;99664.25;;;4.59;84.37
63700;BME280;49845;47.130;142.766;2023-11-21T11:49:24;99657.38;;;4.43;84.16
63700;BME280;49845;47.130;142.766;2023-11-21T11:54:59;99682.38;;;4.36;85.26
63700;BME280;49845;47.130;142.766;2023-11-21T11:57:31;99685.00;;;4.25;85.37
63700;BME280;49845;47.130;142.766;2023-11-21T12:00:09;99681.56;;;4.17;85.55
63700;BME280;49845;47.130;142.766;2023-11-21T12:02:44;99693.59;;;4.18;85.37
63700;BME280;49845;47.130;142.766;2023-11-21T12:05:16;99677.25;;;4.15;85.43
63700;BME280;49845;47.130;142.766;2023-11-21T12:07:49;99675.50;;;4.09;85.47
63700;BME280;49845;47.130;142.766;2023-11-21T12:10:24;99675.50;;;4.00;85.79
63700;BME280;49845;47.130;142.766;2023-11-21T12:12:56;99683.25;;;3.94;86.84
63700;BME280;49845;47.130;142.766;2023-11-21T12:15:28;99675.44;;;3.74;87.10
63700;BME280;49845;47.130;142.766;2023-11-21T12:18:01;99684.03;;;3.59;87.56
63700;BME280;49845;47.130;142.766;2023-11-21T12:20:32;99678.00;;;3.54;88.49
63700;BME280;49845;47.130;142.766;2023-11-21T12:23:07;99677.94;;;3.38;88.96
63700;BME280;49845;47.130;142.766;2023-11-21T12:25:39;99676.16;;;3.22;89.42
63700;BME280;49845;47.130;142.766;2023-11-21T12:28:10;99679.59;;;3.15;90.04
63700;BME280;49845;47.130;142.766;2023-11-21T12:30:40;99677.78;;;3.01;90.54
63700;BME280;49845;47.130;142.766;2023-11-21T12:33:13;99669.09;;;2.81;91.17
63700;BME280;49845;47.130;142.766;2023-11-21T12:35:46;99681.97;;;2.78;91.94
63700;BME280;49845;47.130;142.766;2023-11-21T12:38:16;99669.84;;;2.62;92.09
63700;BME280;49845;47.130;142.766;2023-11-21T12:40:48;99675.78;;;2.48;92.86
63700;BME280;49845;47.130;142.766;2023-11-21T12:43:18;99670.53;;;2.36;93.43
63700;BME280;49845;47.130;142.766;2023-11-21T12:45:49;99677.28;;;2.19;93.59
63700;BME280;49845;47.130;142.766;2023-11-21T12:48:23;99671.09;;;1.98;94.24
63700;BME280;49845;47.130;142.766;2023-11-21T12:50:55;99675.25;;;1.84;95.07
63700;BME280;49845;47.130;142.766;2023-11-21T12:53:28;99675.16;;;1.73;95.63
63700;BME280;49845;47.130;142.766;2023-11-21T12:56:07;99679.31;;;1.60;96.47
63700;BME280;49845;47.130;142.766;2023-11-21T12:58:39;99665.41;;;1.43;96.96
63700;BME280;49845;47.130;142.766;2023-11-21T13:01:10;99678.34;;;1.52;98.08
63700;BME280;49845;47.130;142.766;2023-11-21T13:03:50;99656.75;;;1.39;98.86
63700;BME280;49845;47.130;142.766;2023-11-21T13:06:20;99680.00;;;1.47;99.43
63700;BME280;49845;47.130;142.766;2023-11-21T13:08:54;99683.34;;;1.37;99.52
63700;BME280;49845;47.130;142.766;2023-11-21T13:11:25;99681.53;;;1.29;100.00
63700;BME280;49845;47.130;142.766;2023-11-21T13:14:00;99687.63;;;1.36;100.00
63700;BME280;49845;47.130;142.766;2023-11-21T13:16:30;99690.13;;;1.28;100.00